Brecht, Belgium
Current Conditions -  °F | °C
As of 5:20 AM on Thursday 27 Nov 2014 (Local Time) from EBAW Reporting Station
Overcast Overcast  
Wind Chill: 44°   Ceiling: 1300
Heat Index: 46°   Visibility: 3mi
Dew Point: 45°   Wind: 5mph
Humidity: 93%   Direction: 130°SE
Pressure: 29.77"   Gusts: NA
Location:  51.35°N, 4.64°E
Report Text: EBAW 270420Z AUTO 13004KT 5000 OVC013/// 08/07 Q1008
Loading
Personal Weather Stations






























Interactive Weather Map New forecast layout! Learn more

10-Day Weather Forecast

Advertisements
Track Severe Weather on mobile